Time;durP1;ratioP1;P1;durP2;ratioP2;P2;SDS_P1;SDS_P2;PMS_P1;PMS_P2;Temp;Humidity;BMP_temperature;BMP_pressure;BME280_temperature;BME280_humidity;BME280_pressure;Samples;Min_cycle;Max_cycle;Signal;HPM_P1;HPM_P2
2023/01/14 00:00:27;;;;;;;2.63;1.50;;;11.70;41.40;;;;;;5013764;28;20217;-51
2023/01/14 00:02:53;;;;;;;2.83;1.50;;;11.70;41.40;;;;;;5014032;28;20420;-50
2023/01/14 00:05:19;;;;;;;2.40;1.60;;;11.60;41.20;;;;;;5013992;28;20220;-51
2023/01/14 00:07:44;;;;;;;2.93;0.80;;;11.60;41.20;;;;;;5014314;28;20570;-51
2023/01/14 00:10:10;;;;;;;4.83;1.63;;;11.60;41.00;;;;;;5014012;28;20183;-51
2023/01/14 00:12:36;;;;;;;2.00;1.17;;;11.60;41.20;;;;;;5013908;28;20167;-51
2023/01/14 00:15:02;;;;;;;2.33;1.20;;;11.50;41.40;;;;;;5013620;28;20481;-50
2023/01/14 00:17:28;;;;;;;3.88;1.20;;;11.60;41.20;;;;;;5013836;28;20179;-50
2023/01/14 00:19:54;;;;;;;2.43;1.27;;;11.60;40.90;;;;;;5014076;28;20257;-50
2023/01/14 00:22:19;;;;;;;3.97;1.63;;;11.60;40.80;;;;;;5013798;28;20660;-51
2023/01/14 00:24:46;;;;;;;2.83;1.60;;;11.60;40.90;;;;;;5013316;28;20348;-51
2023/01/14 00:27:12;;;;;;;2.90;1.17;;;11.60;41.00;;;;;;5013677;28;20170;-51
2023/01/14 00:29:38;;;;;;;5.23;1.60;;;11.60;40.90;;;;;;5013617;28;20182;-51
2023/01/14 00:32:05;;;;;;;2.80;1.40;;;11.50;41.00;;;;;;5013439;28;20174;-51
2023/01/14 00:34:32;;;;;;;3.55;1.10;;;11.50;41.20;;;;;;5013169;28;20613;-51
2023/01/14 00:36:58;;;;;;;4.43;1.33;;;11.40;41.10;;;;;;5013514;28;20170;-51
2023/01/14 00:39:25;;;;;;;3.20;1.43;;;11.50;41.20;;;;;;5013574;28;20704;-51
2023/01/14 00:41:54;;;;;;;3.97;1.80;;;11.50;41.30;;;;;;5013406;28;20174;-51
2023/01/14 00:44:20;;;;;;;4.80;1.40;;;11.40;41.10;;;;;;5013402;28;20558;-50
2023/01/14 00:46:46;;;;;;;3.37;1.57;;;11.40;41.10;;;;;;5013157;28;20214;-51
2023/01/14 00:49:18;;;;;;;4.07;1.60;;;11.40;41.10;;;;;;5013515;28;20229;-51
2023/01/14 00:51:44;;;;;;;6.43;1.10;;;11.50;41.20;;;;;;5013235;28;20572;-51
2023/01/14 00:54:10;;;;;;;2.25;1.10;;;11.50;41.10;;;;;;5013077;28;20674;-51
2023/01/14 00:56:36;;;;;;;4.40;1.43;;;11.40;41.00;;;;;;5011866;28;20225;-51
2023/01/14 00:59:02;;;;;;;4.80;1.70;;;11.40;40.90;;;;;;5013118;28;20217;-51
2023/01/14 01:01:27;;;;;;;4.50;1.33;;;11.40;41.10;;;;;;5013241;28;20181;-51
2023/01/14 01:03:56;;;;;;;3.60;1.77;;;11.30;41.90;;;;;;5012961;28;20643;-51
2023/01/14 01:06:24;;;;;;;3.08;1.45;;;11.40;41.00;;;;;;5012717;28;20228;-51
2023/01/14 01:08:50;;;;;;;5.32;2.03;;;11.40;40.80;;;;;;5012883;28;20182;-51
2023/01/14 01:11:17;;;;;;;2.70;1.25;;;11.40;40.90;;;;;;5012887;28;20666;-51
2023/01/14 01:13:43;;;;;;;5.45;0.98;;;11.40;41.00;;;;;;5011869;28;20233;-51
2023/01/14 01:16:14;;;;;;;2.63;1.38;;;11.40;40.90;;;;;;5012680;28;20651;-51
2023/01/14 01:18:40;;;;;;;4.50;1.10;;;11.40;40.90;;;;;;5013014;28;20182;-51
2023/01/14 01:21:12;;;;;;;6.65;1.35;;;11.40;40.50;;;;;;5013035;28;20178;-51
2023/01/14 01:23:42;;;;;;;5.35;1.25;;;11.50;40.80;;;;;;5012759;28;20210;-51
2023/01/14 01:26:12;;;;;;;5.38;1.42;;;11.40;40.80;;;;;;5012660;28;20195;-51
2023/01/14 01:28:38;;;;;;;3.58;1.40;;;11.40;40.60;;;;;;5012930;28;20187;-51
2023/01/14 01:31:07;;;;;;;4.03;1.73;;;11.50;40.70;;;;;;5012778;28;20266;-51
2023/01/14 01:33:33;;;;;;;1.95;1.10;;;11.60;40.50;;;;;;5012493;28;20205;-51
2023/01/14 01:36:11;;;;;;;3.97;1.35;;;11.50;40.40;;;;;;5012419;28;20178;-50
2023/01/14 01:38:37;;;;;;;2.05;1.13;;;11.50;40.40;;;;;;5012533;28;20562;-51
2023/01/14 01:41:03;;;;;;;3.53;1.00;;;11.50;40.40;;;;;;5012542;28;20175;-51
2023/01/14 01:43:31;;;;;;;5.20;1.27;;;11.60;40.00;;;;;;5012382;28;20189;-51
2023/01/14 01:45:59;;;;;;;2.42;1.20;;;11.60;40.00;;;;;;5012348;28;20445;-51
2023/01/14 01:48:33;;;;;;;6.72;1.48;;;11.60;39.90;;;;;;5012673;28;20182;-51
2023/01/14 01:51:22;;;;;;;1.40;0.75;;;11.60;39.90;;;;;;5012382;28;20245;-51
2023/01/14 01:53:51;;;;;;;3.83;1.45;;;11.50;39.80;;;;;;5012263;28;20713;-51
2023/01/14 01:56:21;;;;;;;6.05;1.15;;;11.50;39.70;;;;;;5012432;28;20182;-51
2023/01/14 01:58:48;;;;;;;3.67;1.40;;;11.40;39.70;;;;;;5012260;28;20555;-51
2023/01/14 02:01:15;;;;;;;2.42;1.40;;;11.50;39.80;;;;;;5012206;28;20730;-51
2023/01/14 02:03:47;;;;;;;2.95;1.15;;;11.50;39.70;;;;;;5012112;28;20194;-51
2023/01/14 02:06:14;;;;;;;3.55;1.35;;;11.60;39.50;;;;;;5011958;28;20735;-51
2023/01/14 02:08:44;;;;;;;5.97;1.60;;;11.60;39.50;;;;;;5012191;28;20175;-50
2023/01/14 02:11:40;;;;;;;3.35;0.80;;;11.60;39.70;;;;;;5012188;28;20169;-51
2023/01/14 02:14:37;;;;;;;3.65;1.38;;;11.60;39.20;;;;;;5000667;28;20234;-51
2023/01/14 02:17:11;;;;;;;5.82;1.60;;;11.60;39.40;;;;;;5012313;28;20170;-51
2023/01/14 02:19:48;;;;;;;1.65;1.08;;;11.70;39.20;;;;;;5012401;28;20181;-51
2023/01/14 02:23:01;;;;;;;2.75;1.45;;;11.60;39.00;;;;;;5012052;28;20680;-51
2023/01/14 02:26:08;;;;;;;4.95;1.30;;;11.50;39.10;;;;;;5015127;28;20198;-51
2023/01/14 02:28:58;;;;;;;4.03;1.20;;;11.50;39.20;;;;;;5005459;28;20676;-51
2023/01/14 02:31:24;;;;;;;3.88;1.70;;;11.50;39.40;;;;;;5015983;28;20179;-51
2023/01/14 02:34:16;;;;;;;5.23;1.27;;;11.50;39.30;;;;;;5015891;28;20217;-51
2023/01/14 02:36:50;;;;;;;6.95;1.38;;;11.50;39.30;;;;;;5012572;28;20539;-51
2023/01/14 02:39:28;;;;;;;5.05;1.30;;;11.50;39.10;;;;;;5015699;28;20849;-51
2023/01/14 02:44:56;;;;;;;1.45;0.70;;;11.50;38.40;;;;;;5015690;28;20225;-51
2023/01/14 02:47:26;;;;;;;3.05;1.20;;;11.50;38.80;;;;;;5015537;28;20210;-51
2023/01/14 02:49:58;;;;;;;3.00;1.10;;;11.60;38.50;;;;;;5015647;28;20182;-51
2023/01/14 02:52:25;;;;;;;2.20;1.30;;;11.60;38.30;;;;;;5015486;28;20208;-51
2023/01/14 02:54:55;;;;;;;2.08;0.95;;;11.50;38.50;;;;;;5015266;28;20222;-50
2023/01/14 02:57:41;;;;;;;7.60;2.05;;;11.60;38.10;;;;;;5015498;28;20182;-51
2023/01/14 03:00:39;;;;;;;5.20;1.42;;;11.50;38.30;;;;;;5015591;28;20246;-51
2023/01/14 03:03:46;;;;;;;9.13;1.73;;;11.50;39.10;;;;;;5015587;28;20560;-51
2023/01/14 03:06:36;;;;;;;2.10;1.20;;;11.60;38.40;;;;;;5014944;28;20198;-50
2023/01/14 03:09:11;;;;;;;6.00;1.52;;;11.60;38.00;;;;;;5015171;28;20654;-51
2023/01/14 03:11:43;;;;;;;2.75;1.13;;;11.60;38.10;;;;;;5015162;28;20182;-51
2023/01/14 03:14:23;;;;;;;2.83;1.27;;;11.60;38.10;;;;;;5014971;28;20582;-51
2023/01/14 03:17:04;;;;;;;6.03;1.35;;;11.70;37.80;;;;;;5015132;28;20650;-51
2023/01/14 03:19:37;;;;;;;4.97;1.00;;;11.70;38.00;;;;;;5015410;28;20166;-51
2023/01/14 03:22:05;;;;;;;3.88;1.50;;;11.70;37.90;;;;;;5014995;28;20174;-51
2023/01/14 03:24:38;;;;;;;4.32;1.25;;;11.70;37.80;;;;;;5014476;28;20199;-51
2023/01/14 03:27:10;;;;;;;8.00;1.85;;;11.70;37.80;;;;;;5014814;28;20602;-51
2023/01/14 03:29:43;;;;;;;3.05;1.95;;;11.70;37.70;;;;;;5015070;28;20309;-51
2023/01/14 03:32:23;;;;;;;1.95;0.90;;;11.70;37.70;;;;;;5014960;28;20174;-51
2023/01/14 03:34:58;;;;;;;7.07;1.90;;;11.70;37.70;;;;;;5014746;28;20243;-51
2023/01/14 03:37:25;;;;;;;5.97;1.10;;;11.70;37.50;;;;;;5014033;28;20170;-51
2023/01/14 03:39:54;;;;;;;2.40;1.20;;;11.70;37.70;;;;;;5014560;28;20178;-51
2023/01/14 03:42:22;;;;;;;5.05;1.13;;;11.70;37.50;;;;;;5014557;28;20313;-50
2023/01/14 03:44:54;;;;;;;5.90;1.40;;;11.70;37.70;;;;;;5014103;28;20682;-51
2023/01/14 03:47:21;;;;;;;2.42;0.80;;;11.70;37.80;;;;;;5014481;28;20259;-51
2023/01/14 03:49:49;;;;;;;1.67;0.82;;;11.70;38.00;;;;;;5014383;28;20254;-51
2023/01/14 03:52:17;;;;;;;4.15;2.08;;;11.70;38.00;;;;;;5014328;28;20189;-51
2023/01/14 03:55:15;;;;;;;2.95;1.20;;;11.70;38.00;;;;;;5014084;28;20261;-51
2023/01/14 03:57:44;;;;;;;4.25;1.30;;;11.70;37.60;;;;;;5012507;28;20179;-50
2023/01/14 04:00:40;;;;;;;4.93;1.70;;;11.60;38.00;;;;;;5014101;28;20558;-51
2023/01/14 04:03:12;;;;;;;4.28;1.50;;;11.60;38.20;;;;;;5014405;28;20198;-51
2023/01/14 04:05:39;;;;;;;7.43;1.75;;;11.60;38.10;;;;;;5013891;28;20206;-51
2023/01/14 04:08:05;;;;;;;6.32;1.60;;;11.50;38.30;;;;;;5014054;28;20174;-51
2023/01/14 04:10:31;;;;;;;7.55;1.77;;;11.50;38.10;;;;;;5013990;28;20183;-51
2023/01/14 04:15:41;;;;;;;5.13;1.33;;;11.40;38.60;;;;;;5013884;28;20229;-51
2023/01/14 04:18:07;;;;;;;4.33;1.20;;;11.50;38.60;;;;;;5013992;28;20543;-51
2023/01/14 04:20:32;;;;;;;3.87;0.83;;;11.60;38.50;;;;;;5013967;28;20602;-50
2023/01/14 04:22:58;;;;;;;2.33;0.97;;;11.60;38.40;;;;;;5013765;28;20694;-50
2023/01/14 04:25:24;;;;;;;6.03;1.80;;;11.70;38.00;;;;;;5013547;28;20195;-51
2023/01/14 04:27:49;;;;;;;4.40;1.10;;;11.60;38.10;;;;;;5013967;28;20179;-51
2023/01/14 04:30:15;;;;;;;4.10;1.60;;;11.60;38.30;;;;;;5013686;28;20583;-51
2023/01/14 04:32:41;;;;;;;2.10;1.10;;;11.60;38.20;;;;;;5013867;28;20179;-51
2023/01/14 04:35:07;;;;;;;4.53;1.40;;;11.70;38.20;;;;;;5013234;28;20421;-50
2023/01/14 04:37:33;;;;;;;6.03;2.00;;;11.70;38.20;;;;;;5013772;28;20175;-51
2023/01/14 04:39:59;;;;;;;7.50;1.83;;;11.80;38.10;;;;;;5013427;28;20178;-50
2023/01/14 04:42:27;;;;;;;3.40;1.30;;;11.60;38.40;;;;;;5013509;28;20179;-51
2023/01/14 04:45:01;;;;;;;4.72;1.52;;;11.60;38.30;;;;;;5013159;28;20194;-51
2023/01/14 04:47:27;;;;;;;3.78;1.58;;;11.60;38.30;;;;;;5013709;28;20163;-51
2023/01/14 04:49:53;;;;;;;1.65;1.10;;;11.60;38.10;;;;;;5013332;28;20174;-51
2023/01/14 04:52:19;;;;;;;4.33;1.20;;;11.60;38.30;;;;;;5013244;28;20175;-51
2023/01/14 04:54:45;;;;;;;4.07;1.10;;;11.60;38.10;;;;;;5013236;28;20191;-51
2023/01/14 04:57:11;;;;;;;8.77;1.83;;;11.50;38.40;;;;;;5013280;28;20282;-51
2023/01/14 04:59:37;;;;;;;4.23;1.67;;;11.40;38.50;;;;;;5013151;28;20475;-50
2023/01/14 05:02:03;;;;;;;5.75;1.60;;;11.40;38.50;;;;;;5013044;28;20262;-51
2023/01/14 05:04:30;;;;;;;4.57;1.67;;;11.50;38.60;;;;;;5013072;28;20190;-51
2023/01/14 05:06:57;;;;;;;7.65;1.88;;;11.60;38.20;;;;;;5012880;28;20249;-51
2023/01/14 05:09:23;;;;;;;3.05;1.40;;;11.50;38.40;;;;;;5012969;28;20634;-50
2023/01/14 05:11:49;;;;;;;3.05;1.52;;;11.40;38.60;;;;;;5012955;28;20641;-51
2023/01/14 05:14:15;;;;;;;5.10;1.90;;;11.30;38.60;;;;;;5012616;28;20210;-50
2023/01/14 05:16:40;;;;;;;4.20;1.47;;;11.30;38.50;;;;;;5012834;28;20206;-51
2023/01/14 05:19:06;;;;;;;3.83;1.47;;;11.30;38.60;;;;;;5013112;28;20205;-50
2023/01/14 05:21:32;;;;;;;3.60;1.40;;;11.30;38.60;;;;;;5012737;28;20223;-51
2023/01/14 05:23:57;;;;;;;6.20;1.23;;;11.20;38.60;;;;;;5013255;28;20221;-51
2023/01/14 05:26:23;;;;;;;3.20;1.77;;;11.20;38.70;;;;;;5012372;28;20692;-51
2023/01/14 05:28:49;;;;;;;4.37;1.57;;;11.20;38.70;;;;;;5012692;28;20254;-50
2023/01/14 05:31:14;;;;;;;5.07;1.33;;;11.20;38.80;;;;;;5012694;28;20175;-51
2023/01/14 05:33:40;;;;;;;4.53;1.67;;;11.20;38.70;;;;;;5012607;28;20174;-51
2023/01/14 05:36:06;;;;;;;5.40;1.53;;;11.20;39.00;;;;;;5012190;28;20178;-51
2023/01/14 05:38:32;;;;;;;3.05;0.88;;;11.20;38.90;;;;;;5012797;28;20270;-51
2023/01/14 05:40:58;;;;;;;6.00;1.87;;;11.20;38.70;;;;;;5012662;28;20655;-51
2023/01/14 05:46:13;;;;;;;4.40;1.50;;;11.20;38.70;;;;;;5012326;28;20589;-51
2023/01/14 05:48:39;;;;;;;3.90;1.75;;;11.30;38.70;;;;;;5012423;28;20666;-51
2023/01/14 05:51:05;;;;;;;2.43;1.10;;;11.30;38.40;;;;;;5012698;28;20206;-51
2023/01/14 05:53:32;;;;;;;5.00;2.35;;;11.30;38.70;;;;;;5012556;28;20182;-50
2023/01/14 05:55:58;;;;;;;5.05;1.23;;;11.30;38.50;;;;;;5012210;28;20250;-51
2023/01/14 05:58:25;;;;;;;2.45;1.60;;;11.40;38.50;;;;;;5011954;28;20206;-51
2023/01/14 06:06:26;;;;;;;3.20;1.52;;;11.40;38.00;;;;;;5012155;28;20260;-50
2023/01/14 06:08:55;;;;;;;3.75;1.20;;;11.40;38.10;;;;;;5012474;28;20583;-50
2023/01/14 06:11:25;;;;;;;6.65;1.50;;;11.40;38.00;;;;;;5012151;28;20236;-51
2023/01/14 06:13:56;;;;;;;2.95;1.30;;;10.70;37.80;;;;;;5012200;28;20209;-51
2023/01/14 06:16:23;;;;;;;2.50;1.30;;;11.40;38.10;;;;;;5012205;28;20221;-51
2023/01/14 06:18:49;;;;;;;6.25;1.52;;;11.40;37.90;;;;;;5012046;28;20701;-51
2023/01/14 06:21:20;;;;;;;4.50;1.73;;;11.40;37.90;;;;;;5012206;28;20178;-51
2023/01/14 06:23:47;;;;;;;7.65;1.55;;;11.40;37.90;;;;;;5012111;28;20790;-51
2023/01/14 06:26:18;;;;;;;5.82;1.20;;;11.30;37.80;;;;;;5011966;28;20273;-51
2023/01/14 06:28:44;;;;;;;4.75;1.20;;;11.30;37.70;;;;;;5012061;28;20167;-51
2023/01/14 06:31:11;;;;;;;4.10;1.42;;;11.30;38.40;;;;;;5011957;28;20225;-50
2023/01/14 06:33:38;;;;;;;3.60;1.05;;;11.20;37.70;;;;;;5012236;28;20174;-50
2023/01/14 06:36:04;;;;;;;8.13;1.50;;;11.20;37.90;;;;;;5011992;28;20304;-50
2023/01/14 06:38:30;;;;;;;4.43;1.27;;;11.10;38.20;;;;;;5012111;28;20185;-50
2023/01/14 06:40:59;;;;;;;4.17;1.80;;;11.10;38.10;;;;;;5011843;28;20175;-51
2023/01/14 06:43:25;;;;;;;7.13;2.05;;;11.10;38.10;;;;;;5012084;28;20182;-51
2023/01/14 06:45:52;;;;;;;3.47;1.23;;;11.10;38.10;;;;;;5011505;28;20206;-50
2023/01/14 06:48:18;;;;;;;2.10;1.00;;;11.10;38.20;;;;;;5011923;28;20174;-50
2023/01/14 06:50:43;;;;;;;4.00;1.27;;;11.00;38.20;;;;;;5011855;28;20183;-50
2023/01/14 06:53:09;;;;;;;4.57;1.67;;;10.90;38.40;;;;;;5011991;28;20175;-51
2023/01/14 06:55:35;;;;;;;12.37;2.70;;;10.80;38.60;;;;;;5011444;28;20528;-51
2023/01/14 06:58:01;;;;;;;5.03;2.03;;;10.90;38.50;;;;;;5012062;28;20189;-50
2023/01/14 07:00:26;;;;;;;3.83;1.13;;;10.90;38.40;;;;;;5011940;28;20182;-49
2023/01/14 07:02:52;;;;;;;2.60;1.53;;;10.90;38.30;;;;;;5011884;28;20186;-51
2023/01/14 07:05:18;;;;;;;3.17;1.27;;;11.00;38.10;;;;;;5011415;28;20211;-51
2023/01/14 07:07:48;;;;;;;4.40;1.53;;;11.00;38.00;;;;;;5011648;28;20665;-50
2023/01/14 07:10:15;;;;;;;8.18;2.25;;;11.10;37.90;;;;;;5011849;28;20212;-50
2023/01/14 07:12:49;;;;;;;5.85;1.50;;;11.10;38.00;;;;;;5015048;28;20182;-50
2023/01/14 07:15:17;;;;;;;3.22;1.45;;;11.10;37.70;;;;;;5014729;28;20213;-51
2023/01/14 07:17:45;;;;;;;5.30;2.40;;;11.10;37.70;;;;;;5015073;28;20182;-50
2023/01/14 07:20:11;;;;;;;3.13;1.20;;;11.10;37.70;;;;;;5014993;28;20178;-50
2023/01/14 07:22:37;;;;;;;5.80;1.85;;;11.10;37.60;;;;;;5014966;28;20639;-50
2023/01/14 07:25:05;;;;;;;5.33;1.90;;;11.00;37.60;;;;;;5014470;28;20216;-50
2023/01/14 07:27:31;;;;;;;7.35;1.73;;;10.90;37.90;;;;;;5014870;28;20362;-51
2023/01/14 07:29:57;;;;;;;3.92;1.90;;;10.90;37.80;;;;;;5014774;28;20927;-50
2023/01/14 07:32:23;;;;;;;3.83;1.60;;;10.90;37.70;;;;;;5014784;28;20167;-50
2023/01/14 07:34:49;;;;;;;2.63;1.00;;;11.00;37.80;;;;;;5014317;28;20225;-50
2023/01/14 07:37:15;;;;;;;4.70;1.55;;;11.00;37.70;;;;;;5014813;28;20410;-50
2023/01/14 07:39:41;;;;;;;3.00;1.83;;;11.10;37.60;;;;;;5014559;28;20179;-51
2023/01/14 07:42:07;;;;;;;5.93;1.50;;;11.00;37.40;;;;;;5014579;28;20415;-50
2023/01/14 07:44:33;;;;;;;7.33;1.83;;;11.00;37.60;;;;;;5014262;28;20178;-50
2023/01/14 07:46:58;;;;;;;3.03;1.50;;;10.90;37.50;;;;;;5014324;28;20464;-50
2023/01/14 07:49:25;;;;;;;3.73;2.53;;;11.00;37.50;;;;;;5014389;28;20197;-50
2023/01/14 07:51:51;;;;;;;4.22;2.10;;;11.00;37.50;;;;;;5014370;28;20412;-50
2023/01/14 07:54:18;;;;;;;2.97;1.30;;;11.00;37.50;;;;;;5014091;28;20194;-50
2023/01/14 07:56:44;;;;;;;5.85;2.63;;;11.10;37.60;;;;;;5014254;28;20306;-50
2023/01/14 07:59:10;;;;;;;2.45;1.63;;;11.20;37.60;;;;;;5014311;28;20191;-51
2023/01/14 08:01:36;;;;;;;8.43;1.90;;;11.30;37.30;;;;;;5014188;28;20190;-50
2023/01/14 08:04:02;;;;;;;5.37;2.30;;;11.40;37.00;;;;;;5012716;28;20198;-50
2023/01/14 08:06:29;;;;;;;3.40;1.53;;;11.40;37.10;;;;;;5013844;28;20453;-51
2023/01/14 08:08:55;;;;;;;5.30;1.95;;;11.60;37.00;;;;;;5014170;28;20570;-50
2023/01/14 08:11:20;;;;;;;2.15;1.10;;;11.70;37.00;;;;;;5014020;28;20171;-51
2023/01/14 08:13:49;;;;;;;4.13;1.90;;;11.80;37.00;;;;;;5013857;28;20221;-50
2023/01/14 08:16:15;;;;;;;12.50;2.30;;;11.90;36.50;;;;;;5013650;28;20409;-50
2023/01/14 08:18:41;;;;;;;15.67;1.83;;;11.90;36.50;;;;;;5014104;28;20179;-51
2023/01/14 08:21:09;;;;;;;6.63;2.00;;;11.90;36.20;;;;;;5013868;28;20533;-50
2023/01/14 08:23:36;;;;;;;6.30;1.20;;;11.90;36.10;;;;;;5013428;28;20432;-50
2023/01/14 08:26:08;;;;;;;5.43;2.50;;;11.80;36.00;;;;;;5013461;28;20257;-50
2023/01/14 08:28:35;;;;;;;11.75;5.75;;;11.70;36.40;;;;;;5013672;28;20178;-50
2023/01/14 08:31:10;;;;;;;9.77;2.78;;;11.60;36.40;;;;;;5013594;28;20213;-51
2023/01/14 08:33:37;;;;;;;10.45;2.67;;;11.60;36.40;;;;;;5013545;28;20666;-50
2023/01/14 08:36:06;;;;;;;7.60;2.38;;;11.60;36.20;;;;;;5013513;28;20182;-50
2023/01/14 08:38:36;;;;;;;5.50;1.70;;;11.50;36.40;;;;;;5013521;28;20186;-50
2023/01/14 08:41:08;;;;;;;6.65;1.65;;;11.50;36.50;;;;;;5013459;28;20174;-51
2023/01/14 08:43:34;;;;;;;6.95;2.17;;;11.60;36.50;;;;;;5013304;28;20174;-50
2023/01/14 08:46:01;;;;;;;6.88;1.77;;;11.70;36.30;;;;;;5013084;28;20239;-50
2023/01/14 08:48:27;;;;;;;3.97;1.95;;;11.90;36.20;;;;;;5013305;28;20643;-51
2023/01/14 08:50:53;;;;;;;4.47;2.13;;;12.40;35.70;;;;;;5013304;28;20178;-50
2023/01/14 08:53:19;;;;;;;4.30;2.40;;;13.00;35.00;;;;;;5013397;28;20166;-51
2023/01/14 08:55:44;;;;;;;6.43;2.10;;;13.70;33.80;;;;;;5013250;28;20203;-51
2023/01/14 08:58:10;;;;;;;7.37;2.80;;;14.20;33.30;;;;;;5013094;28;20185;-50
2023/01/14 09:00:36;;;;;;;5.88;2.42;;;14.40;32.30;;;;;;5013447;28;20178;-51
2023/01/14 09:03:02;;;;;;;4.90;2.23;;;14.80;31.70;;;;;;5013437;28;20535;-51
2023/01/14 09:05:28;;;;;;;5.20;2.30;;;14.70;30.70;;;;;;5012669;28;20578;-51
2023/01/14 09:19:00;;;;;;;5.60;2.42;;;16.90;27.40;;;;;;5013077;28;20162;-51
2023/01/14 09:21:26;;;;;;;6.43;2.23;;;16.80;27.50;;;;;;5012978;28;20178;-51
2023/01/14 09:23:51;;;;;;;4.63;2.00;;;16.80;27.80;;;;;;5012846;28;20457;-51
2023/01/14 09:26:19;;;;;;;7.20;2.07;;;16.80;26.90;;;;;;5012378;28;20437;-51
2023/01/14 09:28:45;;;;;;;6.68;2.47;;;16.50;26.90;;;;;;5013000;28;20258;-51
2023/01/14 09:31:11;;;;;;;3.03;1.50;;;16.40;27.70;;;;;;5012667;28;20428;-51
2023/01/14 09:33:36;;;;;;;5.30;1.77;;;16.10;28.00;;;;;;5011793;28;20171;-51
2023/01/14 09:36:02;;;;;;;6.33;1.57;;;16.00;27.10;;;;;;5012206;28;20208;-51
2023/01/14 09:38:28;;;;;;;5.55;1.90;;;15.90;28.00;;;;;;5012498;28;20202;-51
2023/01/14 09:40:55;;;;;;;4.10;2.10;;;15.90;28.20;;;;;;5012410;28;20207;-52
2023/01/14 09:43:23;;;;;;;6.30;2.20;;;15.80;28.70;;;;;;5012439;28;20444;-52
2023/01/14 09:45:59;;;;;;;11.48;2.58;;;15.50;28.20;;;;;;5012195;28;20222;-52
2023/01/14 09:48:27;;;;;;;6.05;1.70;;;15.40;29.40;;;;;;5012388;28;20174;-52
2023/01/14 09:51:02;;;;;;;5.40;1.50;;;15.10;28.80;;;;;;5012250;28;20505;-52
2023/01/14 09:53:39;;;;;;;6.95;2.42;;;15.00;29.60;;;;;;5012338;28;20166;-52
2023/01/14 09:56:12;;;;;;;6.00;2.63;;;14.90;29.10;;;;;;5012128;28;20170;-52
2023/01/14 09:58:47;;;;;;;4.72;1.73;;;14.60;29.30;;;;;;5012231;28;20594;-52
2023/01/14 10:01:29;;;;;;;4.32;2.13;;;14.40;30.00;;;;;;5012394;28;20174;-52
2023/01/14 10:03:55;;;;;;;5.07;2.88;;;14.20;30.50;;;;;;5012346;28;20202;-52
2023/01/14 10:06:21;;;;;;;5.13;2.37;;;14.10;31.00;;;;;;5011860;28;20229;-52
2023/01/14 10:08:54;;;;;;;6.77;2.33;;;14.30;30.70;;;;;;5012205;28;20254;-52
2023/01/14 10:11:21;;;;;;;6.57;2.63;;;14.50;30.50;;;;;;5012512;28;20471;-52
2023/01/14 10:14:12;;;;;;;5.22;2.00;;;14.60;30.30;;;;;;5011970;28;20551;-52
2023/01/14 10:16:42;;;;;;;3.50;2.55;;;14.70;28.80;;;;;;5011963;28;20635;-52
2023/01/14 10:19:34;;;;;;;4.05;1.95;;;14.80;28.80;;;;;;5012012;28;20795;-52
2023/01/14 10:22:28;;;;;;;9.65;2.85;;;14.80;29.00;;;;;;5012047;28;20170;-52
2023/01/14 10:24:54;;;;;;;8.18;1.88;;;14.60;29.10;;;;;;5011744;28;20210;-52
2023/01/14 10:27:20;;;;;;;6.10;2.10;;;14.30;29.40;;;;;;5012072;28;20179;-52
2023/01/14 10:29:47;;;;;;;5.97;2.40;;;14.10;29.30;;;;;;5010682;28;20190;-52
2023/01/14 10:32:16;;;;;;;3.88;1.80;;;13.70;29.10;;;;;;5011859;28;20428;-52
2023/01/14 10:34:47;;;;;;;5.00;1.73;;;13.70;30.10;;;;;;5011819;28;20229;-52
2023/01/14 10:37:14;;;;;;;7.28;1.80;;;13.90;29.10;;;;;;5012004;28;20206;-52
2023/01/14 10:39:50;;;;;;;6.43;4.88;;;13.70;29.40;;;;;;5012086;28;20233;-52
2023/01/14 10:42:21;;;;;;;3.42;2.05;;;13.90;29.90;;;;;;5011914;28;20171;-52
2023/01/14 10:44:48;;;;;;;4.85;1.80;;;14.50;28.50;;;;;;5012138;28;20195;-52
2023/01/14 10:47:16;;;;;;;5.63;2.42;;;15.00;27.80;;;;;;5015773;28;20284;-53
2023/01/14 10:49:46;;;;;;;7.20;2.22;;;15.60;27.30;;;;;;5015781;28;20309;-52
2023/01/14 10:52:22;;;;;;;6.63;1.38;;;16.00;25.70;;;;;;5015574;28;20163;-52
2023/01/14 10:54:53;;;;;;;5.78;2.17;;;16.40;25.30;;;;;;5015191;28;20214;-52
2023/01/14 10:57:19;;;;;;;6.32;2.03;;;16.60;25.10;;;;;;5015458;28;20167;-53
2023/01/14 10:59:51;;;;;;;4.10;2.90;;;16.90;25.20;;;;;;5015604;28;20171;-53
2023/01/14 11:02:35;;;;;;;5.72;2.78;;;17.50;24.00;;;;;;5015421;28;20378;-53
2023/01/14 11:05:03;;;;;;;4.07;2.35;;;17.90;23.50;;;;;;5014835;28;20191;-52
2023/01/14 11:07:37;;;;;;;6.60;2.35;;;17.90;23.10;;;;;;5015068;28;20166;-53
2023/01/14 11:10:24;;;;;;;4.93;2.00;;;17.70;22.50;;;;;;5015210;28;20182;-53
2023/01/14 11:13:13;;;;;;;4.35;2.25;;;17.50;23.30;;;;;;5015181;28;20178;-51
2023/01/14 11:15:41;;;;;;;4.10;1.13;;;17.10;23.30;;;;;;5014659;28;20699;-52
2023/01/14 11:18:18;;;;;;;6.88;2.13;;;16.50;23.50;;;;;;5014938;28;20629;-53
2023/01/14 11:21:03;;;;;;;4.65;1.98;;;16.30;24.50;;;;;;5014988;28;20650;-52
2023/01/14 11:23:42;;;;;;;4.88;1.75;;;16.10;24.80;;;;;;5014780;28;20206;-52
2023/01/14 11:26:11;;;;;;;3.92;2.08;;;15.90;25.10;;;;;;5014579;28;20201;-52
2023/01/14 11:28:46;;;;;;;4.40;1.50;;;15.70;24.80;;;;;;5015367;28;20179;-53
2023/01/14 11:31:12;;;;;;;9.55;2.08;;;15.30;25.50;;;;;;5014796;28;20198;-53
2023/01/14 11:33:50;;;;;;;6.40;1.40;;;15.10;26.50;;;;;;5014924;28;20166;-53
2023/01/14 11:36:21;;;;;;;4.63;2.00;;;15.00;26.70;;;;;;5014491;28;20669;-52
2023/01/14 11:38:47;;;;;;;3.50;1.70;;;14.90;26.70;;;;;;5014751;28;20175;-53
2023/01/14 11:41:33;;;;;;;4.17;2.07;;;14.90;27.40;;;;;;5014660;28;20185;-53
2023/01/14 11:44:23;;;;;;;4.63;2.08;;;14.70;26.70;;;;;;5014765;28;20561;-52
2023/01/14 11:47:14;;;;;;;2.85;1.98;;;14.70;27.80;;;;;;5014722;28;20182;-53
2023/01/14 11:49:40;;;;;;;5.85;2.60;;;14.70;27.50;;;;;;5011584;28;20186;-53
2023/01/14 11:52:17;;;;;;;5.50;1.73;;;14.70;27.60;;;;;;5014370;28;20174;-53
2023/01/14 11:54:48;;;;;;;3.33;1.52;;;14.70;27.80;;;;;;5014148;28;20248;-53
2023/01/14 11:57:16;;;;;;;4.93;2.83;;;14.70;27.60;;;;;;5013625;28;20182;-53
2023/01/14 11:59:43;;;;;;;7.47;2.00;;;14.70;27.40;;;;;;5014223;28;20551;-53
2023/01/14 12:02:12;;;;;;;9.02;2.25;;;14.70;27.80;;;;;;5014140;28;20313;-53
2023/01/14 12:04:48;;;;;;;7.63;2.80;;;14.60;27.30;;;;;;5013934;28;20198;-53
2023/01/14 12:07:26;;;;;;;8.63;2.30;;;14.70;27.80;;;;;;5014175;28;20214;-53
2023/01/14 12:09:57;;;;;;;4.75;1.90;;;14.60;27.30;;;;;;5014315;28;20193;-53
2023/01/14 12:18:52;;;;;;;7.30;2.90;;;14.30;28.00;;;;;;5013888;28;20182;-53
2023/01/14 12:21:27;;;;;;;5.60;2.53;;;14.40;28.10;;;;;;5014148;28;20186;-53
2023/01/14 12:24:06;;;;;;;3.97;1.73;;;14.30;27.90;;;;;;5013724;28;20208;-53
2023/01/14 12:26:38;;;;;;;4.90;1.75;;;14.10;28.00;;;;;;5013549;28;20222;-52
2023/01/14 12:29:09;;;;;;;5.32;1.83;;;13.90;28.80;;;;;;5013955;28;20233;-53
2023/01/14 12:31:44;;;;;;;6.25;2.08;;;14.00;29.00;;;;;;5013577;28;20262;-51
2023/01/14 12:34:24;;;;;;;5.85;2.45;;;14.10;28.50;;;;;;5013519;28;20733;-53
2023/01/14 12:37:17;;;;;;;5.38;1.92;;;14.00;28.20;;;;;;5013464;28;20181;-52
2023/01/14 12:45:46;;;;;;;4.75;1.73;;;13.80;28.90;;;;;;5013144;28;20301;-53
2023/01/14 12:48:17;;;;;;;5.13;2.20;;;13.90;29.50;;;;;;5013389;28;20612;-52
2023/01/14 12:50:58;;;;;;;4.38;2.33;;;14.00;29.00;;;;;;5013425;28;20202;-53
2023/01/14 12:53:28;;;;;;;8.77;2.22;;;14.00;29.00;;;;;;5013321;28;20584;-52
2023/01/14 12:55:59;;;;;;;13.13;2.00;;;13.90;29.70;;;;;;5013012;28;20170;-53
2023/01/14 12:58:30;;;;;;;7.90;1.70;;;14.00;29.70;;;;;;5013210;28;20179;-52
2023/01/14 13:01:03;;;;;;;7.85;2.78;;;14.10;29.70;;;;;;5013398;28;20171;-52
2023/01/14 13:03:52;;;;;;;4.93;3.00;;;13.80;29.80;;;;;;5013353;28;20205;-53
2023/01/14 13:06:32;;;;;;;4.40;2.03;;;13.70;30.10;;;;;;5012746;28;20701;-52
2023/01/14 13:09:00;;;;;;;6.35;2.28;;;13.80;30.30;;;;;;5012015;28;20174;-51
2023/01/14 13:11:48;;;;;;;8.45;2.63;;;13.80;29.90;;;;;;5012974;28;20203;-53
2023/01/14 13:14:24;;;;;;;3.72;2.35;;;13.90;30.30;;;;;;5012823;28;20222;-53
2023/01/14 13:16:59;;;;;;;5.20;2.17;;;13.80;29.80;;;;;;5013193;28;20207;-53
2023/01/14 13:19:25;;;;;;;2.85;1.42;;;13.80;30.00;;;;;;5012844;28;20170;-53
2023/01/14 13:21:55;;;;;;;5.90;2.30;;;13.80;30.10;;;;;;5012674;28;20178;-53
2023/01/14 13:24:30;;;;;;;4.68;2.47;;;13.90;29.70;;;;;;5012516;28;20285;-53
2023/01/14 13:26:58;;;;;;;7.22;2.38;;;13.80;30.20;;;;;;5012568;28;20194;-52
2023/01/14 13:29:27;;;;;;;5.15;2.20;;;13.90;30.50;;;;;;5012648;28;20209;-52
2023/01/14 13:31:54;;;;;;;8.20;2.85;;;13.90;30.50;;;;;;5012606;28;20241;-52
2023/01/14 13:34:23;;;;;;;8.20;3.70;;;14.00;29.80;;;;;;5012686;28;20210;-51
2023/01/14 13:37:04;;;;;;;6.22;3.85;;;14.00;30.50;;;;;;5012834;28;20178;-53
2023/01/14 13:39:31;;;;;;;7.72;4.72;;;14.00;29.70;;;;;;5012430;28;20166;-52